Minerva Libra — SVAA7 — position and weather

sailwx.info

Track history (hours):
 
Tides and Currents Weather Stations Pressure Air Temp Water Temp Dewpoint Dewpoint Depression Visibility Wind Speed Wind Dir Waves Ship Positions

Minerva Libra

Last reported at 2018-Feb-14 09:30 UTC. Time now 2018-Jun-19 02:57 UTC.
Position N 51°55' E 004°12'.
Warning: this ship's position is months out of date.

Length 250 m; draft 12.9 m.

Type: Ship. MMSI: 240766000.

Date/timePositionNaut miles runAvg speedWind from/ knotsBaromVisibWave heightAir tempDewpointWater temp
2018-Feb-14 09:30N 51°55' E 004°12'0 0.0
2018-Feb-14 09:00N 51°55' E 004°12'0 0.0
2018-Feb-14 08:30N 51°55' E 004°12'0 0.0
2018-Feb-14 07:58N 51°55' E 004°12'0 0.0
2018-Feb-14 07:22N 51°55' E 004°12'0 0.0
2018-Feb-14 06:58N 51°55' E 004°12'0 0.0
2018-Feb-14 06:22N 51°55' E 004°12'0 0.0
2018-Feb-14 05:55N 51°55' E 004°12'0 0.0
2018-Feb-14 05:25N 51°55' E 004°12'0 0.0
2018-Feb-14 04:58N 51°55' E 004°12'0 0.0
2018-Feb-14 04:28N 51°55' E 004°12'0 0.0
2018-Feb-14 03:49N 51°55' E 004°12'0 0.0
2018-Feb-14 03:28N 51°55' E 004°12'0 0.0
2018-Feb-14 02:55N 51°55' E 004°12'0 0.0
2018-Feb-14 02:22N 51°55' E 004°12'0 0.0
2018-Feb-14 01:58N 51°55' E 004°12'0 0.0
2018-Feb-14 01:25N 51°55' E 004°12'0 0.0
2018-Feb-14 00:58N 51°55' E 004°12'0 0.0
2018-Feb-14 00:25N 51°55' E 004°12'0 0.0
2018-Feb-13 23:55N 51°55' E 004°12'0 0.0
2018-Feb-13 23:28N 51°55' E 004°12'0 0.0
2018-Feb-13 22:58N 51°55' E 004°12'0 0.0
2018-Feb-13 22:28N 51°55' E 004°12'0 0.0
2018-Feb-13 21:58N 51°55' E 004°12'0 0.0
2018-Feb-13 21:28N 51°55' E 004°12'0 0.0
2018-Feb-13 20:58N 51°55' E 004°12'0 0.0
2018-Feb-13 20:28N 51°55' E 004°12'0 0.0
2018-Feb-13 19:58N 51°55' E 004°12'0 0.0
2018-Feb-13 19:28N 51°55' E 004°12'0 0.0
2018-Feb-13 18:58N 51°55' E 004°12'0 0.0
2018-Feb-13 18:28N 51°55' E 004°12'0 0.0
2018-Feb-13 17:58N 51°55' E 004°12'0 0.0
2018-Feb-13 17:30N 51°55' E 004°12'0 0.5
2018-Feb-13 17:00N 51°55' E 004°12'1 1.5
2018-Feb-13 16:30N 51°56' E 004°12'3 5.2
2018-Feb-13 16:00N 51°57' E 004°08'4 7.3
2018-Feb-13 15:30N 51°59' E 004°03'5 9.0
2018-Feb-13 15:00N 52°00' E 003°56'4 8.9
2018-Feb-13 14:30N 52°00' E 003°49'2 4.6
2018-Feb-13 13:59N 51°60' E 003°45'1 1.6
2018-Feb-13 13:28N 52°00' E 003°44'1 2.2
2018-Feb-13 13:00N 51°60' E 003°43'2 3.0
2018-Feb-13 12:29N 51°59' E 003°41'11 1.7
2018-Feb-13 06:09N 51°54' E 003°25'0 0.1
2018-Feb-13 05:57N 51°54' E 003°25'0 0.1
2018-Feb-13 05:30N 51°54' E 003°25'0 0.1
2018-Feb-13 04:57N 51°54' E 003°25'0 0.0
2018-Feb-13 04:30N 51°54' E 003°25'27 1.5
2018-Feb-12 09:56N 51°47' E 002°42'12 6.3
2018-Feb-12 07:59N 51°39' E 002°28'3 5.9
2018-Feb-12 07:29N 51°37' E 002°25'3 5.9
2018-Feb-12 07:01N 51°35' E 002°22'3 5.7
2018-Feb-12 06:29N 51°32' E 002°19'3 5.5
2018-Feb-12 06:00N 51°30' E 002°16'3 5.5
2018-Feb-12 05:30N 51°28' E 002°13'3 5.6
2018-Feb-12 05:00N 51°26' E 002°10'3 5.3
2018-Feb-12 04:30N 51°24' E 002°08'3 5.4
2018-Feb-12 04:00N 51°21' E 002°08'3 5.4
2018-Feb-12 03:30N 51°19' E 002°07'3 5.7
2018-Feb-12 03:00N 51°16' E 002°06'3 5.9
2018-Feb-12 02:30N 51°13' E 002°04'3 6.5
2018-Feb-12 02:00N 51°12' E 001°59'3 6.9
2018-Feb-12 01:30N 51°10' E 001°54'3 6.9
2018-Feb-12 01:00N 51°09' E 001°49'2 4.6
2018-Feb-12 00:30N 51°07' E 001°46'2 4.5
2018-Feb-12 00:00N 51°06' E 001°44'3 5.0
2018-Feb-11 23:30N 51°04' E 001°41'3 5.8
2018-Feb-11 23:00N 51°02' E 001°38'4 7.2
2018-Feb-11 22:30N 50°59' E 001°33'5 8.9
2018-Feb-11 21:58N 50°56' E 001°28'4 8.9
2018-Feb-11 21:30N 50°52' E 001°26'4 8.5
2018-Feb-11 20:59N 50°48' E 001°24'4 7.9
2018-Feb-11 20:27N 50°44' E 001°22'4 7.7
2018-Feb-11 19:56N 50°40' E 001°19'42 7.9
2018-Feb-11 14:34N 50°22' E 000°19'1 7.6
2018-Feb-11 14:27N 50°21' E 000°18'5 7.5
2018-Feb-11 13:45N 50°20' E 000°10'2 7.4
2018-Feb-11 13:30N 50°20' E 000°07'4 7.5
2018-Feb-11 13:00N 50°19' E 000°02'5 9.0
2018-Feb-11 12:30N 50°17' W 000°05'42 9.8
2018-Feb-11 08:16N 50°07' W 001°08'411.5
2018-Feb-11 07:54N 50°06' W 001°15'511.8
2018-Feb-11 07:30N 50°05' W 001°22'612.2
2018-Feb-11 07:00N 50°03' W 001°31'612.5
2018-Feb-11 06:30N 50°01' W 001°40'713.0
2018-Feb-11 06:00N 49°60' W 001°50'713.3
2018-Feb-11 05:29N 49°58' W 002°00'813.4
2018-Feb-11 04:55N 49°56' W 002°12'3512.7
2018-Feb-11 02:07N 49°47' W 003°05'612.1
2018-Feb-11 01:39N 49°45' W 003°13'312.1
2018-Feb-11 01:22N 49°44' W 003°18'511.9
2018-Feb-11 00:59N 49°42' W 003°25'  
Track history (hours):
 
Tides and Currents Weather Stations Pressure Air Temp Water Temp Dewpoint Dewpoint Depression Visibility Wind Speed Wind Dir Waves Ship Positions

Minerva Libra

Last reported at 2018-Feb-14 09:30 UTC. Time now 2018-Jun-19 02:57 UTC.
Position N 51°55' E 004°12'.
Warning: this ship's position is months out of date.

Length 250 m; draft 12.9 m.

Type: Ship. MMSI: 240766000.

Date/timePositionNaut miles runAvg speedWind from/ knotsBaromVisibWave heightAir tempDewpointWater temp
2018-Feb-14 09:30N 51°55' E 004°12'0 0.0
2018-Feb-14 09:00N 51°55' E 004°12'0 0.0
2018-Feb-14 08:30N 51°55' E 004°12'0 0.0
2018-Feb-14 07:58N 51°55' E 004°12'0 0.0
2018-Feb-14 07:22N 51°55' E 004°12'0 0.0
2018-Feb-14 06:58N 51°55' E 004°12'0 0.0
2018-Feb-14 06:22N 51°55' E 004°12'0 0.0
2018-Feb-14 05:55N 51°55' E 004°12'0 0.0
2018-Feb-14 05:25N 51°55' E 004°12'0 0.0
2018-Feb-14 04:58N 51°55' E 004°12'0 0.0
2018-Feb-14 04:28N 51°55' E 004°12'0 0.0
2018-Feb-14 03:49N 51°55' E 004°12'0 0.0
2018-Feb-14 03:28N 51°55' E 004°12'0 0.0
2018-Feb-14 02:55N 51°55' E 004°12'0 0.0
2018-Feb-14 02:22N 51°55' E 004°12'0 0.0
2018-Feb-14 01:58N 51°55' E 004°12'0 0.0
2018-Feb-14 01:25N 51°55' E 004°12'0 0.0
2018-Feb-14 00:58N 51°55' E 004°12'0 0.0
2018-Feb-14 00:25N 51°55' E 004°12'0 0.0
2018-Feb-13 23:55N 51°55' E 004°12'0 0.0
2018-Feb-13 23:28N 51°55' E 004°12'0 0.0
2018-Feb-13 22:58N 51°55' E 004°12'0 0.0
2018-Feb-13 22:28N 51°55' E 004°12'0 0.0
2018-Feb-13 21:58N 51°55' E 004°12'0 0.0
2018-Feb-13 21:28N 51°55' E 004°12'0 0.0
2018-Feb-13 20:58N 51°55' E 004°12'0 0.0
2018-Feb-13 20:28N 51°55' E 004°12'0 0.0
2018-Feb-13 19:58N 51°55' E 004°12'0 0.0
2018-Feb-13 19:28N 51°55' E 004°12'0 0.0
2018-Feb-13 18:58N 51°55' E 004°12'0 0.0
2018-Feb-13 18:28N 51°55' E 004°12'0 0.0
2018-Feb-13 17:58N 51°55' E 004°12'0 0.0
2018-Feb-13 17:30N 51°55' E 004°12'0 0.5
2018-Feb-13 17:00N 51°55' E 004°12'1 1.5
2018-Feb-13 16:30N 51°56' E 004°12'3 5.2
2018-Feb-13 16:00N 51°57' E 004°08'4 7.3
2018-Feb-13 15:30N 51°59' E 004°03'5 9.0
2018-Feb-13 15:00N 52°00' E 003°56'4 8.9
2018-Feb-13 14:30N 52°00' E 003°49'2 4.6
2018-Feb-13 13:59N 51°60' E 003°45'1 1.6
2018-Feb-13 13:28N 52°00' E 003°44'1 2.2
2018-Feb-13 13:00N 51°60' E 003°43'2 3.0
2018-Feb-13 12:29N 51°59' E 003°41'11 1.7
2018-Feb-13 06:09N 51°54' E 003°25'0 0.1
2018-Feb-13 05:57N 51°54' E 003°25'0 0.1
2018-Feb-13 05:30N 51°54' E 003°25'0 0.1
2018-Feb-13 04:57N 51°54' E 003°25'0 0.0
2018-Feb-13 04:30N 51°54' E 003°25'27 1.5
2018-Feb-12 09:56N 51°47' E 002°42'12 6.3
2018-Feb-12 07:59N 51°39' E 002°28'3 5.9
2018-Feb-12 07:29N 51°37' E 002°25'3 5.9
2018-Feb-12 07:01N 51°35' E 002°22'3 5.7
2018-Feb-12 06:29N 51°32' E 002°19'3 5.5
2018-Feb-12 06:00N 51°30' E 002°16'3 5.5
2018-Feb-12 05:30N 51°28' E 002°13'3 5.6
2018-Feb-12 05:00N 51°26' E 002°10'3 5.3
2018-Feb-12 04:30N 51°24' E 002°08'3 5.4
2018-Feb-12 04:00N 51°21' E 002°08'3 5.4
2018-Feb-12 03:30N 51°19' E 002°07'3 5.7
2018-Feb-12 03:00N 51°16' E 002°06'3 5.9
2018-Feb-12 02:30N 51°13' E 002°04'3 6.5
2018-Feb-12 02:00N 51°12' E 001°59'3 6.9
2018-Feb-12 01:30N 51°10' E 001°54'3 6.9
2018-Feb-12 01:00N 51°09' E 001°49'2 4.6
2018-Feb-12 00:30N 51°07' E 001°46'2 4.5
2018-Feb-12 00:00N 51°06' E 001°44'3 5.0
2018-Feb-11 23:30N 51°04' E 001°41'3 5.8
2018-Feb-11 23:00N 51°02' E 001°38'4 7.2
2018-Feb-11 22:30N 50°59' E 001°33'5 8.9
2018-Feb-11 21:58N 50°56' E 001°28'4 8.9
2018-Feb-11 21:30N 50°52' E 001°26'4 8.5
2018-Feb-11 20:59N 50°48' E 001°24'4 7.9
2018-Feb-11 20:27N 50°44' E 001°22'4 7.7
2018-Feb-11 19:56N 50°40' E 001°19'42 7.9
2018-Feb-11 14:34N 50°22' E 000°19'1 7.6
2018-Feb-11 14:27N 50°21' E 000°18'5 7.5
2018-Feb-11 13:45N 50°20' E 000°10'2 7.4
2018-Feb-11 13:30N 50°20' E 000°07'4 7.5
2018-Feb-11 13:00N 50°19' E 000°02'5 9.0
2018-Feb-11 12:30N 50°17' W 000°05'42 9.8
2018-Feb-11 08:16N 50°07' W 001°08'411.5
2018-Feb-11 07:54N 50°06' W 001°15'511.8
2018-Feb-11 07:30N 50°05' W 001°22'612.2
2018-Feb-11 07:00N 50°03' W 001°31'612.5
2018-Feb-11 06:30N 50°01' W 001°40'713.0
2018-Feb-11 06:00N 49°60' W 001°50'713.3
2018-Feb-11 05:29N 49°58' W 002°00'813.4
2018-Feb-11 04:55N 49°56' W 002°12'3512.7
2018-Feb-11 02:07N 49°47' W 003°05'612.1
2018-Feb-11 01:39N 49°45' W 003°13'312.1
2018-Feb-11 01:22N 49°44' W 003°18'511.9
2018-Feb-11 00:59N 49°42' W 003°25'  

Dump ship's entire track history